createdAt,value
2023-02-07T00:00:50.226Z,21.80
2023-02-07T00:03:17.636Z,15.05
2023-02-07T00:05:48.360Z,15.27
2023-02-07T00:08:16.488Z,13.18
2023-02-07T00:10:46.692Z,14.90
2023-02-07T00:13:23.112Z,9.77
2023-02-07T00:15:53.729Z,8.77
2023-02-07T00:18:20.851Z,7.30
2023-02-07T00:20:58.780Z,9.98
2023-02-07T00:23:26.128Z,10.80
2023-02-07T00:25:53.427Z,11.10
2023-02-07T00:28:21.364Z,8.88
2023-02-07T00:30:49.128Z,12.75
2023-02-07T00:33:16.684Z,10.88
2023-02-07T00:35:46.585Z,8.70
2023-02-07T00:38:14.399Z,9.82
2023-02-07T00:40:42.639Z,4.47
2023-02-07T00:43:12.875Z,10.00
2023-02-07T00:45:43.900Z,11.85
2023-02-07T00:48:11.738Z,8.43
2023-02-07T00:50:42.900Z,10.00
2023-02-07T00:53:12.942Z,10.20
2023-02-07T00:55:40.590Z,16.15
2023-02-07T00:58:08.778Z,14.10
2023-02-07T01:00:36.206Z,13.50
2023-02-07T01:03:03.849Z,12.63
2023-02-07T01:05:31.414Z,22.77
2023-02-07T01:07:59.136Z,11.43
2023-02-07T01:10:26.523Z,18.08
2023-02-07T01:12:54.552Z,14.07
2023-02-07T01:15:22.821Z,13.00
2023-02-07T01:17:53.328Z,10.32
2023-02-07T01:20:20.789Z,13.13
2023-02-07T01:22:48.143Z,14.90
2023-02-07T01:25:16.016Z,9.57
2023-02-07T01:27:43.054Z,6.85
2023-02-07T01:30:11.012Z,15.73
2023-02-07T01:32:38.456Z,13.80
2023-02-07T01:35:10.409Z,7.65
2023-02-07T01:37:38.117Z,7.40
2023-02-07T01:40:05.597Z,5.22
2023-02-07T01:42:34.083Z,11.13
2023-02-07T01:45:27.538Z,7.45
2023-02-07T01:47:59.651Z,7.72
2023-02-07T01:50:27.836Z,7.10
2023-02-07T01:52:58.690Z,6.72
2023-02-07T01:55:33.056Z,5.45
2023-02-07T01:58:01.783Z,7.93
2023-02-07T02:00:29.796Z,8.25
2023-02-07T02:02:57.412Z,8.30
2023-02-07T02:05:29.939Z,8.02
2023-02-07T02:08:00.432Z,5.90
2023-02-07T02:10:47.616Z,15.93
2023-02-07T02:13:27.364Z,9.27
2023-02-07T02:16:19.746Z,15.57
2023-02-07T02:19:11.526Z,9.30
2023-02-07T02:22:19.106Z,5.90
2023-02-07T02:25:22.785Z,12.30
2023-02-07T02:28:11.121Z,6.43
2023-02-07T02:31:12.971Z,5.70
2023-02-07T02:33:56.264Z,7.45
2023-02-07T02:36:57.410Z,7.55
2023-02-07T02:39:46.213Z,9.18
2023-02-07T02:42:51.609Z,4.70
2023-02-07T02:45:30.454Z,7.78
2023-02-07T02:47:58.632Z,10.38
2023-02-07T02:50:28.666Z,10.85
2023-02-07T02:52:56.641Z,7.57
2023-02-07T02:55:42.604Z,7.70
2023-02-07T02:58:57.769Z,7.28
2023-02-07T03:01:46.024Z,8.18
2023-02-07T03:04:37.072Z,7.78
2023-02-07T03:07:07.254Z,6.57
2023-02-07T03:10:11.933Z,10.43
2023-02-07T03:13:00.547Z,13.43
2023-02-07T03:15:57.813Z,6.53
2023-02-07T03:18:32.072Z,5.68
2023-02-07T03:21:12.633Z,4.90
2023-02-07T03:23:40.815Z,9.10
2023-02-07T03:26:09.049Z,3.25
2023-02-07T03:28:37.096Z,6.55
2023-02-07T03:31:13.230Z,4.05
2023-02-07T03:33:42.231Z,6.40
2023-02-07T03:36:17.331Z,6.32
2023-02-07T03:38:48.251Z,4.07
2023-02-07T03:41:30.332Z,4.03
2023-02-07T03:44:00.640Z,7.47
2023-02-07T03:46:37.476Z,6.03
2023-02-07T03:49:05.908Z,5.28
2023-02-07T03:51:33.577Z,13.05
2023-02-07T03:54:04.188Z,9.00
2023-02-07T03:56:31.499Z,3.85
2023-02-07T03:59:02.998Z,6.20
2023-02-07T04:01:33.181Z,5.97
2023-02-07T04:04:00.666Z,4.50
2023-02-07T04:06:28.469Z,9.40
2023-02-07T04:08:56.719Z,7.22
2023-02-07T04:11:24.460Z,5.88
2023-02-07T04:13:54.576Z,5.28
2023-02-07T04:16:21.678Z,10.98
2023-02-07T04:18:49.146Z,8.20
2023-02-07T04:21:16.846Z,5.53
2023-02-07T04:23:44.918Z,7.70
2023-02-07T04:26:12.762Z,6.35
2023-02-07T04:28:40.031Z,12.68
2023-02-07T04:31:07.777Z,10.20
2023-02-07T04:33:36.004Z,11.63
2023-02-07T04:36:04.447Z,7.70
2023-02-07T04:38:31.553Z,9.85
2023-02-07T04:41:04.617Z,9.57
2023-02-07T04:43:33.387Z,6.38
2023-02-07T04:46:01.007Z,5.63
2023-02-07T04:48:28.858Z,9.98
2023-02-07T04:50:56.048Z,5.95
2023-02-07T04:53:26.084Z,8.95
2023-02-07T04:55:54.317Z,7.50
2023-02-07T04:58:28.081Z,8.98
2023-02-07T05:01:00.146Z,5.03
2023-02-07T05:03:28.575Z,11.52
2023-02-07T05:05:56.274Z,8.93
2023-02-07T05:08:26.105Z,7.63
2023-02-07T05:10:55.716Z,5.78
2023-02-07T05:13:24.648Z,8.45
2023-02-07T05:15:58.073Z,10.82
2023-02-07T05:18:29.046Z,8.52
2023-02-07T05:20:57.537Z,7.70
2023-02-07T05:23:25.171Z,6.75
2023-02-07T05:26:18.046Z,5.38
2023-02-07T05:28:48.364Z,10.20
2023-02-07T05:31:15.560Z,13.60
2023-02-07T05:33:43.347Z,4.22
2023-02-07T05:36:16.740Z,9.93
2023-02-07T05:38:45.790Z,7.82
2023-02-07T05:41:13.371Z,13.68
2023-02-07T05:43:43.911Z,8.98
2023-02-07T05:46:14.458Z,6.88
2023-02-07T05:48:43.657Z,7.15
2023-02-07T05:51:10.926Z,6.28
2023-02-07T05:53:41.150Z,7.82
2023-02-07T05:56:09.568Z,7.32
2023-02-07T05:58:37.026Z,4.25
2023-02-07T06:01:05.327Z,5.70
2023-02-07T06:03:33.582Z,10.18
2023-02-07T06:06:01.380Z,10.02
2023-02-07T06:08:31.803Z,7.00
2023-02-07T06:11:01.245Z,5.22
2023-02-07T06:13:31.779Z,11.25
2023-02-07T06:15:58.938Z,9.90
2023-02-07T06:18:35.787Z,6.35
2023-02-07T06:21:04.540Z,12.20
2023-02-07T06:23:37.695Z,11.70
2023-02-07T06:26:05.879Z,10.25
2023-02-07T06:28:33.071Z,9.13
2023-02-07T06:31:03.861Z,7.10
2023-02-07T06:33:31.483Z,12.95
2023-02-07T06:36:01.295Z,8.02
2023-02-07T06:38:29.414Z,8.25
2023-02-07T06:41:02.776Z,5.57
2023-02-07T06:43:33.173Z,6.25
2023-02-07T06:46:16.763Z,10.13
2023-02-07T06:48:45.156Z,8.95
2023-02-07T06:51:33.570Z,8.43
2023-02-07T06:54:25.528Z,8.15
2023-02-07T06:57:04.503Z,7.82
2023-02-07T06:59:56.306Z,14.18
2023-02-07T07:02:30.838Z,8.63
2023-02-07T07:08:30.768Z,11.73
2023-02-07T07:10:59.668Z,12.30
2023-02-07T07:13:32.091Z,7.70
2023-02-07T07:16:31.692Z,12.85
2023-02-07T07:19:15.962Z,10.23
2023-02-07T07:30:19.132Z,14.80
2023-02-07T07:33:15.939Z,26.20
2023-02-07T07:41:03.410Z,15.68
2023-02-07T07:46:47.299Z,16.45
2023-02-07T07:50:10.858Z,16.65
2023-02-07T07:56:28.739Z,19.45
2023-02-07T07:59:44.077Z,15.63
2023-02-07T08:06:03.812Z,14.00
2023-02-07T08:08:53.407Z,14.88
2023-02-07T08:14:47.979Z,8.57
2023-02-07T08:32:49.146Z,21.08
2023-02-07T08:35:21.747Z,13.10
2023-02-07T08:37:59.230Z,14.80
2023-02-07T08:40:30.206Z,18.88
2023-02-07T08:43:35.611Z,15.40
2023-02-07T08:46:13.032Z,15.50
2023-02-07T08:48:41.628Z,15.85
2023-02-07T08:51:13.801Z,15.63
2023-02-07T08:53:49.966Z,16.35
2023-02-07T08:56:31.061Z,21.98
2023-02-07T08:59:00.226Z,20.30
2023-02-07T09:01:40.123Z,18.63
2023-02-07T09:04:11.122Z,13.73
2023-02-07T09:06:39.178Z,11.20
2023-02-07T09:12:17.221Z,12.57
2023-02-07T09:14:48.352Z,20.70
2023-02-07T09:17:16.031Z,19.20
2023-02-07T09:19:46.545Z,16.00
2023-02-07T09:22:22.664Z,13.25
2023-02-07T09:24:51.096Z,16.83
2023-02-07T09:27:21.918Z,27.05
2023-02-07T09:29:49.204Z,28.95
2023-02-07T09:32:27.383Z,23.23
2023-02-07T09:35:06.656Z,20.02
2023-02-07T09:37:50.220Z,13.13
2023-02-07T09:40:30.935Z,12.43
2023-02-07T09:43:08.201Z,12.80
2023-02-07T09:46:06.773Z,14.07
2023-02-07T09:49:10.643Z,13.77
2023-02-07T09:51:38.932Z,9.38
2023-02-07T09:54:30.006Z,11.35
2023-02-07T09:57:11.667Z,9.40
2023-02-07T10:00:35.274Z,13.98
2023-02-07T10:03:22.559Z,9.45
2023-02-07T10:06:17.515Z,10.57
2023-02-07T10:08:52.461Z,13.15
2023-02-07T10:11:46.341Z,12.90
2023-02-07T10:14:25.554Z,11.60
2023-02-07T10:16:56.861Z,13.43
2023-02-07T10:19:51.596Z,13.18
2023-02-07T10:22:35.352Z,13.15
2023-02-07T10:25:15.789Z,15.95
2023-02-07T10:28:14.074Z,16.25
2023-02-07T10:30:53.277Z,14.57
2023-02-07T10:33:25.613Z,16.77
2023-02-07T10:35:54.521Z,17.40
2023-02-07T10:39:11.547Z,11.30
2023-02-07T10:41:57.877Z,7.72
2023-02-07T10:44:27.966Z,8.82
2023-02-07T10:47:05.685Z,16.02
2023-02-07T10:49:36.817Z,12.80
2023-02-07T10:52:31.723Z,14.27
2023-02-07T10:55:04.996Z,14.00
2023-02-07T10:57:32.801Z,14.30
2023-02-07T11:00:05.960Z,12.05
2023-02-07T11:02:44.409Z,13.70
2023-02-07T11:05:18.295Z,9.60
2023-02-07T11:08:21.804Z,9.60
2023-02-07T11:10:55.564Z,8.68
2023-02-07T11:13:37.501Z,10.38
2023-02-07T11:16:12.804Z,12.65
2023-02-07T11:19:07.866Z,11.40
2023-02-07T11:21:44.980Z,11.50
2023-02-07T11:24:23.312Z,7.90
2023-02-07T11:27:19.327Z,9.68
2023-02-07T11:29:55.497Z,13.50
2023-02-07T11:32:28.974Z,15.88
2023-02-07T11:35:09.601Z,16.02
2023-02-07T11:37:57.772Z,11.57
2023-02-07T11:40:45.693Z,9.98
2023-02-07T11:43:20.190Z,13.75
2023-02-07T11:45:50.745Z,17.10
2023-02-07T11:48:29.522Z,16.35
2023-02-07T11:51:00.586Z,12.15
2023-02-07T11:53:36.848Z,13.18
2023-02-07T11:56:06.370Z,23.17
2023-02-07T11:58:42.007Z,12.93
2023-02-07T12:01:36.104Z,15.15
2023-02-07T12:04:11.229Z,20.38
2023-02-07T12:06:52.567Z,23.90
2023-02-07T12:09:35.199Z,16.63
2023-02-07T12:12:10.469Z,16.75
2023-02-07T12:15:04.726Z,11.65
2023-02-07T12:18:05.705Z,13.55
2023-02-07T12:20:44.952Z,10.48
2023-02-07T12:23:40.680Z,9.27
2023-02-07T12:26:37.813Z,13.13
2023-02-07T12:29:24.893Z,16.67
2023-02-07T12:32:10.324Z,11.50
2023-02-07T12:35:04.529Z,11.63
2023-02-07T12:37:47.982Z,12.85
2023-02-07T12:40:46.154Z,12.25
2023-02-07T12:43:51.364Z,7.65
2023-02-07T12:46:34.287Z,13.48
2023-02-07T12:49:37.767Z,13.45
2023-02-07T12:58:48.030Z,13.57
2023-02-07T13:02:02.581Z,7.60
2023-02-07T13:09:08.876Z,11.07
2023-02-07T13:12:25.005Z,20.42
2023-02-07T13:16:02.339Z,12.55
2023-02-07T13:18:38.907Z,14.52
2023-02-07T13:24:27.909Z,16.45
2023-02-07T13:27:13.465Z,12.10
2023-02-07T13:29:47.043Z,8.82
2023-02-07T13:32:24.358Z,11.75
2023-02-07T13:35:26.942Z,12.35
2023-02-07T13:38:13.869Z,11.45
2023-02-07T13:41:02.900Z,12.35
2023-02-07T13:43:36.570Z,13.95
2023-02-07T13:46:12.715Z,10.32
2023-02-07T13:49:15.138Z,11.70
2023-02-07T13:51:50.931Z,16.67
2023-02-07T13:54:28.507Z,14.20
2023-02-07T13:57:17.081Z,19.20
2023-02-07T14:00:04.467Z,12.30
2023-02-07T14:02:47.359Z,12.27
2023-02-07T14:05:30.191Z,23.98
2023-02-07T14:08:18.249Z,14.05
2023-02-07T14:10:59.137Z,10.68
2023-02-07T14:13:36.669Z,11.00
2023-02-07T14:16:09.484Z,12.73
2023-02-07T14:18:49.064Z,14.75
2023-02-07T14:21:20.158Z,12.20
2023-02-07T14:24:09.395Z,8.73
2023-02-07T14:26:41.040Z,18.40
2023-02-07T14:29:23.393Z,14.10
2023-02-07T14:31:58.603Z,10.10
2023-02-07T14:34:31.483Z,12.13
2023-02-07T14:37:00.552Z,13.85
2023-02-07T14:39:33.017Z,17.85
2023-02-07T14:42:17.492Z,16.98
2023-02-07T14:47:29.287Z,14.82
2023-02-07T14:50:00.678Z,16.77
2023-02-07T14:52:39.269Z,13.52
2023-02-07T14:55:14.742Z,8.70
2023-02-07T14:57:55.529Z,12.70
2023-02-07T15:00:35.021Z,8.30
2023-02-07T15:03:11.798Z,15.48
2023-02-07T15:05:50.539Z,15.57
2023-02-07T15:08:20.802Z,12.27
2023-02-07T15:11:20.789Z,13.23
2023-02-07T15:13:51.004Z,19.73
2023-02-07T15:16:41.510Z,12.73
2023-02-07T15:19:32.312Z,14.65
2023-02-07T15:22:05.640Z,12.48
2023-02-07T15:24:51.210Z,19.83
2023-02-07T15:27:23.248Z,14.85
2023-02-07T15:30:05.629Z,14.15
2023-02-07T15:32:35.729Z,13.90
2023-02-07T15:35:29.174Z,19.40
2023-02-07T15:38:18.385Z,13.98
2023-02-07T15:40:48.634Z,13.63
2023-02-07T15:43:34.126Z,14.20
2023-02-07T15:46:03.223Z,15.05
2023-02-07T15:48:32.327Z,17.98
2023-02-07T15:51:02.719Z,16.58
2023-02-07T15:53:32.946Z,15.30
2023-02-07T15:56:06.158Z,17.10
2023-02-07T15:58:36.169Z,19.75
2023-02-07T16:01:19.271Z,14.88
2023-02-07T16:03:48.140Z,16.35
2023-02-07T16:06:27.635Z,18.10
2023-02-07T16:09:03.227Z,16.63
2023-02-07T16:11:30.814Z,15.43
2023-02-07T16:14:15.645Z,18.45
2023-02-07T16:19:36.830Z,15.18
2023-02-07T16:22:12.076Z,17.23
2023-02-07T16:24:44.187Z,14.00
2023-02-07T16:27:18.919Z,15.07
2023-02-07T16:29:48.860Z,17.25
2023-02-07T16:32:17.127Z,13.25
2023-02-07T16:34:58.958Z,14.90
2023-02-07T16:37:30.339Z,14.07
2023-02-07T16:39:58.067Z,14.15
2023-02-07T16:42:25.386Z,20.23
2023-02-07T16:44:53.693Z,14.18
2023-02-07T16:47:21.789Z,18.48
2023-02-07T16:49:49.773Z,16.85
2023-02-07T16:52:17.668Z,13.00
2023-02-07T16:54:47.174Z,15.65
2023-02-07T16:57:15.325Z,14.20
2023-02-07T16:59:42.785Z,15.45
2023-02-07T17:02:15.755Z,10.30
2023-02-07T17:04:43.253Z,11.07
2023-02-07T17:07:11.728Z,14.80
2023-02-07T17:09:38.854Z,15.60
2023-02-07T17:12:07.457Z,17.13
2023-02-07T17:14:36.428Z,17.08
2023-02-07T17:17:04.481Z,14.48
2023-02-07T17:19:31.604Z,18.08
2023-02-07T17:21:58.733Z,13.70
2023-02-07T17:24:26.452Z,15.07
2023-02-07T17:26:56.721Z,17.02
2023-02-07T17:29:27.752Z,17.40
2023-02-07T17:31:55.532Z,13.98
2023-02-07T17:34:27.313Z,17.38
2023-02-07T17:36:55.089Z,13.23
2023-02-07T17:39:23.426Z,17.27
2023-02-07T17:41:50.623Z,10.55
2023-02-07T17:44:22.650Z,14.88
2023-02-07T17:46:50.067Z,13.45
2023-02-07T17:49:17.869Z,18.08
2023-02-07T17:51:45.143Z,19.00
2023-02-07T17:54:12.380Z,15.05
2023-02-07T17:56:39.568Z,18.15
2023-02-07T17:59:08.019Z,22.80
2023-02-07T18:01:35.193Z,18.77
2023-02-07T18:04:04.155Z,18.65
2023-02-07T18:06:31.497Z,17.50
2023-02-07T18:08:58.934Z,18.10
2023-02-07T18:11:30.551Z,21.90
2023-02-07T18:13:57.785Z,17.08
2023-02-07T18:16:28.843Z,20.92
2023-02-07T18:19:02.113Z,22.83
2023-02-07T18:21:30.400Z,19.38
2023-02-07T18:23:57.668Z,22.17
2023-02-07T18:26:25.313Z,19.58
2023-02-07T18:28:52.746Z,16.75
2023-02-07T18:31:24.528Z,17.95
2023-02-07T18:33:53.434Z,19.85
2023-02-07T18:36:22.840Z,14.07
2023-02-07T18:38:53.591Z,17.27
2023-02-07T18:41:23.729Z,25.58
2023-02-07T18:43:52.112Z,15.60
2023-02-07T18:46:21.474Z,14.23
2023-02-07T18:48:56.275Z,12.05
2023-02-07T18:51:24.597Z,21.42
2023-02-07T18:53:55.024Z,16.85
2023-02-07T18:56:25.041Z,15.55
2023-02-07T18:59:01.468Z,14.98
2023-02-07T19:01:30.812Z,23.42
2023-02-07T19:04:01.530Z,21.05
2023-02-07T19:06:32.742Z,18.85
2023-02-07T19:09:00.421Z,18.27
2023-02-07T19:11:27.920Z,20.08
2023-02-07T19:13:55.203Z,23.38
2023-02-07T19:16:23.925Z,21.10
2023-02-07T19:18:56.831Z,15.00
2023-02-07T19:21:27.349Z,21.35
2023-02-07T19:23:58.962Z,14.98
2023-02-07T19:26:27.514Z,18.52
2023-02-07T19:28:57.556Z,16.83
2023-02-07T19:31:31.844Z,21.08
2023-02-07T19:34:04.681Z,22.65
2023-02-07T19:36:31.954Z,16.65
2023-02-07T19:38:59.789Z,16.05
2023-02-07T19:41:29.956Z,17.13
2023-02-07T19:43:58.075Z,19.30
2023-02-07T19:46:25.684Z,25.35
2023-02-07T19:48:55.054Z,19.45
2023-02-07T19:51:28.040Z,25.92
2023-02-07T19:53:56.747Z,23.30
2023-02-07T19:56:25.608Z,18.25
2023-02-07T19:58:54.747Z,23.60
2023-02-07T20:01:25.439Z,18.20
2023-02-07T20:03:54.150Z,22.67
2023-02-07T20:06:24.646Z,22.40
2023-02-07T20:08:52.023Z,21.50
2023-02-07T20:11:21.033Z,25.00
2023-02-07T20:13:52.367Z,27.92
2023-02-07T20:16:22.846Z,22.25
2023-02-07T20:18:54.169Z,19.25
2023-02-07T20:21:25.307Z,17.75
2023-02-07T20:23:54.657Z,17.98
2023-02-07T20:26:25.500Z,16.17
2023-02-07T20:28:58.294Z,18.77
2023-02-07T20:31:29.582Z,18.63
2023-02-07T20:33:57.695Z,19.95
2023-02-07T20:36:26.483Z,16.15
2023-02-07T20:38:56.543Z,16.15
2023-02-07T20:41:29.561Z,16.95
2023-02-07T20:44:05.464Z,15.93
2023-02-07T20:46:35.607Z,15.48
2023-02-07T20:49:06.539Z,20.75
2023-02-07T20:51:34.799Z,14.48
2023-02-07T20:54:05.317Z,21.80
2023-02-07T20:56:33.821Z,17.13
2023-02-07T20:59:15.500Z,21.58
2023-02-07T21:01:42.799Z,18.65
2023-02-07T21:04:10.748Z,19.48
2023-02-07T21:06:39.406Z,20.58
2023-02-07T21:09:08.002Z,20.80
2023-02-07T21:11:45.273Z,17.88
2023-02-07T21:14:18.109Z,14.32
2023-02-07T21:16:46.134Z,16.13
2023-02-07T21:19:15.103Z,16.08
2023-02-07T21:21:43.183Z,17.80
2023-02-07T21:24:10.520Z,15.57
2023-02-07T21:26:38.175Z,13.55
2023-02-07T21:29:06.962Z,15.93
2023-02-07T21:31:36.298Z,17.63
2023-02-07T21:34:05.798Z,21.40
2023-02-07T21:36:38.406Z,20.63
2023-02-07T21:39:11.992Z,19.73
2023-02-07T21:41:44.652Z,19.63
2023-02-07T21:44:19.262Z,18.20
2023-02-07T21:46:46.443Z,17.08
2023-02-07T21:49:16.650Z,16.13
2023-02-07T21:51:46.421Z,19.02
2023-02-07T21:54:13.750Z,18.73
2023-02-07T21:56:45.765Z,20.95
2023-02-07T21:59:16.622Z,16.13
2023-02-07T22:01:45.239Z,20.00
2023-02-07T22:04:15.413Z,17.70
2023-02-07T22:06:44.181Z,13.57
2023-02-07T22:09:14.038Z,19.35
2023-02-07T22:11:41.676Z,17.27
2023-02-07T22:14:10.875Z,16.60
2023-02-07T22:16:38.100Z,14.02
2023-02-07T22:19:07.124Z,20.92
2023-02-07T22:21:36.492Z,18.08
2023-02-07T22:24:06.263Z,17.70
2023-02-07T22:26:34.967Z,19.30
2023-02-07T22:29:06.434Z,20.52
2023-02-07T22:31:36.543Z,15.85
2023-02-07T22:34:14.439Z,18.08
2023-02-07T22:36:47.269Z,19.88
2023-02-07T22:39:16.371Z,20.85
2023-02-07T22:41:43.591Z,29.70
2023-02-07T22:44:10.727Z,15.18
2023-02-07T22:46:38.165Z,25.10
2023-02-07T22:49:12.582Z,22.95
2023-02-07T22:51:39.927Z,18.30
2023-02-07T22:54:16.903Z,18.38
2023-02-07T22:56:45.125Z,15.40
2023-02-07T22:59:13.558Z,21.95
2023-02-07T23:01:42.606Z,17.45
2023-02-07T23:04:15.737Z,20.63
2023-02-07T23:06:43.505Z,15.25
2023-02-07T23:09:10.892Z,23.05
2023-02-07T23:11:38.681Z,13.77
2023-02-07T23:14:05.897Z,12.85
2023-02-07T23:16:33.909Z,13.57
2023-02-07T23:19:12.781Z,22.33
2023-02-07T23:21:40.283Z,17.02
2023-02-07T23:24:08.193Z,16.80
2023-02-07T23:26:35.699Z,15.77
2023-02-07T23:29:04.423Z,16.33
2023-02-07T23:31:31.598Z,11.43
2023-02-07T23:33:59.521Z,13.73
2023-02-07T23:36:27.466Z,16.95
2023-02-07T23:38:54.539Z,17.63
2023-02-07T23:41:21.776Z,15.23
2023-02-07T23:43:49.490Z,16.55
2023-02-07T23:46:18.074Z,13.38
2023-02-07T23:48:45.935Z,16.13
2023-02-07T23:51:14.509Z,20.15
2023-02-07T23:53:43.486Z,16.17
2023-02-07T23:56:16.283Z,15.82
2023-02-07T23:58:47.838Z,15.55
